Time;durP1;ratioP1;P1;durP2;ratioP2;P2;SDS_P1;SDS_P2;PMS_P1;PMS_P2;Temp;Humidity;BMP_temperature;BMP_pressure;BME280_temperature;BME280_humidity;BME280_pressure;Samples;Min_cycle;Max_cycle;Signal;HPM_P1;HPM_P2
2023/01/26 00:01:30;;;;;;;62.63;10.95;;;;;;;;;;6148951;23;20092;-50
2023/01/26 00:03:57;;;;;;;67.75;12.30;;;;;;;;;;6147586;23;20100;-57
2023/01/26 00:06:31;;;;;;;81.22;11.77;;;;;;;;;;6148280;23;20022;-60
2023/01/26 00:08:58;;;;;;;52.92;10.10;;;;;;;;;;6147227;23;20104;-60
2023/01/26 00:11:26;;;;;;;80.13;10.43;;;;;;;;;;6147463;23;20057;-60
2023/01/26 00:14:00;;;;;;;68.60;9.52;;;;;;;;;;6146964;23;20435;-60
2023/01/26 00:16:34;;;;;;;62.30;8.68;;;;;;;;;;6145496;23;20551;-60
2023/01/26 00:19:08;;;;;;;61.58;7.35;;;;;;;;;;6147684;23;20104;-60
2023/01/26 00:21:35;;;;;;;55.70;7.53;;;;;;;;;;6148654;23;20113;-71
2023/01/26 00:24:03;;;;;;;57.78;8.02;;;;;;;;;;6122403;23;20025;-50
2023/01/26 00:26:37;;;;;;;59.03;7.88;;;;;;;;;;6124423;23;20017;-52
2023/01/26 00:29:04;;;;;;;64.22;7.85;;;;;;;;;;6147699;23;20393;-53
2023/01/26 00:31:38;;;;;;;53.55;7.22;;;;;;;;;;6143167;23;20097;-56
2023/01/26 00:34:05;;;;;;;58.03;8.05;;;;;;;;;;6145474;23;20029;-55
2023/01/26 00:36:32;;;;;;;74.95;7.72;;;;;;;;;;6148554;23;20682;-52
2023/01/26 00:39:06;;;;;;;60.95;7.20;;;;;;;;;;6147047;23;20396;-59
2023/01/26 00:44:25;;;;;;;57.55;7.10;;;;;;;;;;6148057;23;20068;-69
2023/01/26 00:46:52;;;;;;;46.35;6.75;;;;;;;;;;6147528;23;20237;-70
2023/01/26 00:49:19;;;;;;;80.30;7.95;;;;;;;;;;6147701;23;20367;-70
2023/01/26 00:51:53;;;;;;;85.00;8.05;;;;;;;;;;6148432;23;20100;-70
2023/01/26 00:54:20;;;;;;;88.47;7.43;;;;;;;;;;6147556;23;20108;-70
2023/01/26 00:56:54;;;;;;;90.32;8.13;;;;;;;;;;6148800;23;20017;-70
2023/01/26 00:59:22;;;;;;;68.95;6.78;;;;;;;;;;6148225;23;20552;-58
2023/01/26 01:01:49;;;;;;;75.40;7.22;;;;;;;;;;6148204;23;20418;-59
2023/01/26 01:04:23;;;;;;;66.35;7.43;;;;;;;;;;6147539;23;20031;-60
2023/01/26 01:06:50;;;;;;;68.57;6.72;;;;;;;;;;6148180;23;20026;-59
2023/01/26 01:09:24;;;;;;;77.30;7.50;;;;;;;;;;6148561;23;20113;-59
2023/01/26 01:11:51;;;;;;;59.03;6.28;;;;;;;;;;6147598;23;20021;-60
2023/01/26 01:14:18;;;;;;;72.13;6.97;;;;;;;;;;6148265;23;20125;-59
2023/01/26 01:16:59;;;;;;;55.50;6.13;;;;;;;;;;6127835;23;20101;-44
2023/01/26 01:19:33;;;;;;;60.80;6.75;;;;;;;;;;6089329;23;20105;-49
2023/01/26 01:22:06;;;;;;;67.13;6.55;;;;;;;;;;6087562;23;20539;-50
2023/01/26 01:24:34;;;;;;;58.50;5.70;;;;;;;;;;6088754;23;20105;-50
2023/01/26 01:27:01;;;;;;;65.75;6.35;;;;;;;;;;6089167;23;20030;-53
2023/01/26 01:29:35;;;;;;;65.78;6.30;;;;;;;;;;6088653;23;20361;-53
2023/01/26 01:32:02;;;;;;;66.75;6.47;;;;;;;;;;6088556;23;20028;-52
2023/01/26 01:34:36;;;;;;;70.10;6.93;;;;;;;;;;6087969;23;20113;-50
2023/01/26 01:37:03;;;;;;;75.45;6.72;;;;;;;;;;6089970;23;20022;-59
2023/01/26 01:39:30;;;;;;;68.38;7.05;;;;;;;;;;6089134;23;20026;-60
2023/01/26 01:42:04;;;;;;;57.95;6.22;;;;;;;;;;6088691;23;20072;-59
2023/01/26 01:44:34;;;;;;;70.40;8.07;;;;;;;;;;6090967;23;20022;-60
2023/01/26 01:47:14;;;;;;;68.75;6.32;;;;;;;;;;6091915;23;20559;-59
2023/01/26 01:49:47;;;;;;;52.55;6.28;;;;;;;;;;6087370;23;20356;-60
2023/01/26 01:52:25;;;;;;;63.08;6.63;;;;;;;;;;6092207;23;20053;-56
2023/01/26 01:55:01;;;;;;;72.40;7.13;;;;;;;;;;6091593;23;20468;-72
2023/01/26 01:57:43;;;;;;;65.30;7.65;;;;;;;;;;6090070;23;20352;-68
2023/01/26 02:00:19;;;;;;;86.53;8.57;;;;;;;;;;6066668;23;20101;-68
2023/01/26 02:03:13;;;;;;;234.77;12.05;;;;;;;;;;6089381;23;20082;-67
2023/01/26 02:05:59;;;;;;;84.50;7.82;;;;;;;;;;6090353;23;20558;-67
2023/01/26 02:08:35;;;;;;;140.98;8.40;;;;;;;;;;6090570;23;20023;-68
2023/01/26 02:11:05;;;;;;;409.90;19.38;;;;;;;;;;6090357;23;20026;-70
2023/01/26 02:13:39;;;;;;;150.73;10.45;;;;;;;;;;6091459;23;20023;-67
2023/01/26 02:16:12;;;;;;;;;;;;;;;;;;6092262;23;20101;-68
2023/01/26 02:18:53;;;;;;;168.50;11.75;;;;;;;;;;6118110;23;19925;-67
2023/01/26 02:21:27;;;;;;;107.35;8.52;;;;;;;;;;6120133;23;20051;-67
2023/01/26 02:24:07;;;;;;;81.60;6.65;;;;;;;;;;6120532;23;20053;-67
2023/01/26 02:26:40;;;;;;;91.05;8.80;;;;;;;;;;6118933;23;20567;-67
2023/01/26 02:29:09;;;;;;;148.25;9.38;;;;;;;;;;6120173;23;20476;-68
2023/01/26 02:31:49;;;;;;;257.63;14.23;;;;;;;;;;6119739;23;20097;-45
2023/01/26 02:34:16;;;;;;;214.68;10.55;;;;;;;;;;6106719;23;20049;-60
2023/01/26 02:36:59;;;;;;;286.33;13.68;;;;;;;;;;6120630;23;20105;-60
2023/01/26 02:39:44;;;;;;;233.90;11.95;;;;;;;;;;6120111;23;20057;-59
2023/01/26 02:45:11;;;;;;;70.20;6.45;;;;;;;;;;6120556;23;20358;-59
2023/01/26 02:47:45;;;;;;;95.78;7.25;;;;;;;;;;6147871;23;20120;-60
2023/01/26 02:50:12;;;;;;;99.88;7.95;;;;;;;;;;6149894;23;20475;-71
2023/01/26 02:52:40;;;;;;;96.93;7.57;;;;;;;;;;6143635;23;20021;-56
2023/01/26 02:55:27;;;;;;;239.93;12.23;;;;;;;;;;6149975;23;20408;-54
2023/01/26 02:57:58;;;;;;;127.50;7.28;;;;;;;;;;6143825;23;20455;-56
2023/01/26 03:00:39;;;;;;;478.92;17.42;;;;;;;;;;6144704;23;20028;-55
2023/01/26 03:03:11;;;;;;;494.70;16.35;;;;;;;;;;6148867;23;20495;-53
2023/01/26 03:05:45;;;;;;;459.63;15.90;;;;;;;;;;6147705;23;20253;-67
2023/01/26 03:08:19;;;;;;;355.50;13.30;;;;;;;;;;6148884;23;20048;-68
2023/01/26 03:10:53;;;;;;;313.38;12.77;;;;;;;;;;6149308;23;20029;-67
2023/01/26 03:13:27;;;;;;;403.13;15.68;;;;;;;;;;6148318;23;20972;-67
2023/01/26 03:16:05;;;;;;;284.98;13.13;;;;;;;;;;6149522;23;20025;-67
2023/01/26 03:27:27;;;;;;;201.65;9.75;;;;;;;;;;6146056;23;20049;-54
2023/01/26 03:29:56;;;;;;;480.85;21.60;;;;;;;;;;6147960;23;20498;-49
2023/01/26 03:32:29;;;;;;;375.05;15.25;;;;;;;;;;6149662;23;20101;-53
2023/01/26 03:34:56;;;;;;;464.27;20.73;;;;;;;;;;6148675;23;20036;-50
2023/01/26 03:37:35;;;;;;;392.63;16.58;;;;;;;;;;6148139;23;20507;-50
2023/01/26 03:57:09;;;;;;;79.07;5.55;;;;;;;;;;6147866;23;20108;-73
2023/01/26 03:59:39;;;;;;;25.23;3.03;;;;;;;;;;6148879;23;20044;-74
2023/01/26 04:10:37;;;;;;;305.52;14.52;;;;;;;;;;6147001;23;20025;-62
2023/01/26 04:21:42;;;;;;;37.50;3.75;;;;;;;;;;6117432;23;20071;-56
2023/01/26 04:24:15;;;;;;;395.58;17.55;;;;;;;;;;6119197;23;20398;-62
2023/01/26 04:26:43;;;;;;;198.35;12.50;;;;;;;;;;6119117;23;20022;-61
2023/01/26 04:29:12;;;;;;;128.57;5.32;;;;;;;;;;6118711;23;20029;-62
2023/01/26 04:31:45;;;;;;;45.35;4.80;;;;;;;;;;6117034;23;20044;-62
2023/01/26 04:34:13;;;;;;;73.22;5.05;;;;;;;;;;6118423;23;20022;-62
2023/01/26 04:36:47;;;;;;;37.88;6.85;;;;;;;;;;6119261;23;20058;-62
2023/01/26 04:39:14;;;;;;;64.22;5.63;;;;;;;;;;6118679;23;20089;-52
2023/01/26 04:41:41;;;;;;;51.67;3.90;;;;;;;;;;6119051;23;20104;-62
2023/01/26 04:44:15;;;;;;;51.28;4.03;;;;;;;;;;6147717;23;20022;-62
2023/01/26 04:46:42;;;;;;;288.20;8.88;;;;;;;;;;6148905;23;20031;-61
2023/01/26 04:49:16;;;;;;;265.30;13.27;;;;;;;;;;6148314;23;20029;-62
2023/01/26 04:51:43;;;;;;;241.90;11.55;;;;;;;;;;6147297;23;20021;-62
2023/01/26 04:54:10;;;;;;;342.27;12.88;;;;;;;;;;6147780;23;20104;-62
2023/01/26 04:56:44;;;;;;;408.25;12.38;;;;;;;;;;6148700;23;20450;-74
2023/01/26 04:59:11;;;;;;;;;;;;;;;;;;6147834;23;20100;-55
2023/01/26 05:01:45;;;;;;;89.13;7.93;;;;;;;;;;6145166;23;20318;-57
2023/01/26 05:04:12;;;;;;;65.53;3.00;;;;;;;;;;6148304;23;20061;-55
2023/01/26 05:06:40;;;;;;;60.55;3.05;;;;;;;;;;6148326;23;20022;-57
2023/01/26 05:09:14;;;;;;;54.38;4.32;;;;;;;;;;6148590;23;20032;-54
2023/01/26 05:11:41;;;;;;;47.78;4.53;;;;;;;;;;6147844;23;20064;-57
2023/01/26 05:14:15;;;;;;;124.82;5.82;;;;;;;;;;6149627;23;20049;-55
2023/01/26 05:16:55;;;;;;;106.47;5.25;;;;;;;;;;6139544;23;20032;-53
2023/01/26 05:19:29;;;;;;;77.30;4.80;;;;;;;;;;6091352;23;20029;-61
2023/01/26 05:21:56;;;;;;;74.85;5.30;;;;;;;;;;6090789;23;20026;-60
2023/01/26 05:24:23;;;;;;;15.98;3.00;;;;;;;;;;6090928;23;20030;-61
2023/01/26 05:27:19;;;;;;;19.98;3.33;;;;;;;;;;6090761;23;20097;-61
2023/01/26 05:29:44;;;;;;;31.60;3.47;;;;;;;;;;6089681;23;20107;-61
2023/01/26 05:32:18;;;;;;;19.65;3.50;;;;;;;;;;6091751;23;20113;-61
2023/01/26 05:34:45;;;;;;;;;;;;;;;;;;6089437;23;20026;-55
2023/01/26 05:37:19;;;;;;;28.15;4.65;;;;;;;;;;6089807;23;19971;-48
2023/01/26 05:39:46;;;;;;;21.05;3.05;;;;;;;;;;6088607;23;20105;-49
2023/01/26 05:42:13;;;;;;;233.38;8.63;;;;;;;;;;6089810;23;20049;-47
2023/01/26 05:44:47;;;;;;;28.75;5.72;;;;;;;;;;6083940;23;20022;-47
2023/01/26 05:47:14;;;;;;;179.75;10.48;;;;;;;;;;6081192;23;20046;-48
2023/01/26 05:49:42;;;;;;;21.52;5.13;;;;;;;;;;6084604;23;20023;-49
2023/01/26 05:52:16;;;;;;;31.35;6.15;;;;;;;;;;6088221;23;20058;-61
2023/01/26 05:54:43;;;;;;;164.10;10.43;;;;;;;;;;6090238;23;20060;-48
2023/01/26 05:57:17;;;;;;;180.02;11.60;;;;;;;;;;6091927;23;20398;-48
2023/01/26 05:59:44;;;;;;;207.40;10.95;;;;;;;;;;6089754;23;20109;-50
2023/01/26 06:02:12;;;;;;;27.98;4.85;;;;;;;;;;6091331;23;20105;-50
2023/01/26 06:04:45;;;;;;;53.33;6.18;;;;;;;;;;6089344;23;20022;-49
2023/01/26 06:07:12;;;;;;;28.00;4.57;;;;;;;;;;6065504;23;20110;-51
2023/01/26 06:09:46;;;;;;;51.17;4.78;;;;;;;;;;6089306;23;20022;-60
2023/01/26 06:12:15;;;;;;;37.45;4.25;;;;;;;;;;6090404;23;20105;-68
2023/01/26 06:14:42;;;;;;;13.05;4.20;;;;;;;;;;6089321;23;20442;-72
2023/01/26 06:17:23;;;;;;;23.30;4.20;;;;;;;;;;6100240;23;20022;-72
2023/01/26 06:19:50;;;;;;;209.57;8.50;;;;;;;;;;6119889;23;20046;-72
2023/01/26 06:22:24;;;;;;;300.77;15.25;;;;;;;;;;6148907;23;20087;-72
2023/01/26 06:24:51;;;;;;;174.20;7.53;;;;;;;;;;6149215;23;20025;-72
2023/01/26 06:27:19;;;;;;;113.93;6.05;;;;;;;;;;6150479;23;20060;-72
2023/01/26 06:29:52;;;;;;;114.47;6.32;;;;;;;;;;6148011;23;20226;-49
2023/01/26 06:32:19;;;;;;;65.43;5.22;;;;;;;;;;6149364;23;20104;-60
2023/01/26 06:34:53;;;;;;;82.20;5.63;;;;;;;;;;6149910;23;20018;-61
2023/01/26 06:37:20;;;;;;;133.07;7.28;;;;;;;;;;6145403;23;20021;-61
2023/01/26 06:39:47;;;;;;;23.45;6.47;;;;;;;;;;6149473;23;20100;-60
2023/01/26 06:42:21;;;;;;;11.88;4.30;;;;;;;;;;6146337;23;20096;-60
2023/01/26 06:44:48;;;;;;;23.25;5.25;;;;;;;;;;6149247;23;20136;-59
2023/01/26 06:47:22;;;;;;;11.25;4.00;;;;;;;;;;6149490;23;20375;-56
2023/01/26 06:49:49;;;;;;;19.67;5.80;;;;;;;;;;6148154;23;20021;-60
2023/01/26 06:52:23;;;;;;;30.08;4.13;;;;;;;;;;6149699;23;20064;-60
2023/01/26 06:54:58;;;;;;;21.48;5.55;;;;;;;;;;6149785;23;20053;-61
2023/01/26 06:57:25;;;;;;;20.38;5.72;;;;;;;;;;6149751;23;20064;-61
2023/01/26 06:59:59;;;;;;;33.33;7.20;;;;;;;;;;6148710;23;20109;-60
2023/01/26 07:02:26;;;;;;;32.85;9.02;;;;;;;;;;6149545;23;20022;-60
2023/01/26 07:04:53;;;;;;;38.35;9.02;;;;;;;;;;6147705;23;20021;-72
2023/01/26 07:07:28;;;;;;;16.52;5.15;;;;;;;;;;6145736;23;20026;-64
2023/01/26 07:09:55;;;;;;;18.40;5.07;;;;;;;;;;6146401;23;20079;-60
2023/01/26 07:12:37;;;;;;;25.38;8.10;;;;;;;;;;6149789;23;20022;-59
2023/01/26 07:15:04;;;;;;;20.30;6.35;;;;;;;;;;6143560;23;20464;-61
2023/01/26 07:17:45;;;;;;;20.85;6.28;;;;;;;;;;6125484;23;20054;-60
2023/01/26 07:20:19;;;;;;;21.13;4.82;;;;;;;;;;6086981;23;20053;-61
2023/01/26 07:22:52;;;;;;;36.17;8.40;;;;;;;;;;6088545;23;20028;-60
2023/01/26 07:25:26;;;;;;;18.92;5.50;;;;;;;;;;6090226;23;20030;-73
2023/01/26 07:28:00;;;;;;;25.98;4.47;;;;;;;;;;6090689;23;20576;-75
2023/01/26 07:30:27;;;;;;;23.73;6.63;;;;;;;;;;6089515;23;20062;-74
2023/01/26 07:32:54;;;;;;;31.67;6.80;;;;;;;;;;6090033;23;20102;-75
2023/01/26 07:35:28;;;;;;;133.10;12.73;;;;;;;;;;6089313;23;20101;-75
2023/01/26 07:37:57;;;;;;;29.13;5.95;;;;;;;;;;6089694;23;20061;-74
2023/01/26 07:40:24;;;;;;;25.65;6.65;;;;;;;;;;6089792;23;20101;-75
2023/01/26 07:42:59;;;;;;;24.70;6.45;;;;;;;;;;6090007;23;20097;-61
2023/01/26 07:45:26;;;;;;;25.17;6.22;;;;;;;;;;6088668;23;20026;-60
2023/01/26 07:48:00;;;;;;;27.77;8.50;;;;;;;;;;6090073;23;20247;-60
2023/01/26 07:50:27;;;;;;;62.55;11.85;;;;;;;;;;6090400;23;20379;-60
2023/01/26 07:52:54;;;;;;;37.75;9.52;;;;;;;;;;6088320;23;20534;-60
2023/01/26 07:55:28;;;;;;;48.65;9.93;;;;;;;;;;6090839;23;20097;-61
2023/01/26 07:57:56;;;;;;;46.40;10.27;;;;;;;;;;6090060;23;20033;-61
2023/01/26 08:00:30;;;;;;;38.78;10.25;;;;;;;;;;6089004;23;20097;-54
2023/01/26 08:02:57;;;;;;;36.00;9.60;;;;;;;;;;6088362;23;20026;-55
2023/01/26 08:05:32;;;;;;;42.20;10.85;;;;;;;;;;6090487;23;20026;-52
2023/01/26 08:07:59;;;;;;;;;;;;;;;;;;6089634;23;20022;-54
2023/01/26 08:10:27;;;;;;;50.13;11.73;;;;;;;;;;6090213;23;20251;-54
2023/01/26 08:13:01;;;;;;;60.13;10.85;;;;;;;;;;6065751;23;20026;-52
2023/01/26 08:15:28;;;;;;;27.90;8.65;;;;;;;;;;6089752;23;20499;-54
2023/01/26 08:18:09;;;;;;;27.58;10.20;;;;;;;;;;6104063;23;20542;-54
2023/01/26 08:20:36;;;;;;;38.22;9.93;;;;;;;;;;6119312;23;20026;-61
2023/01/26 08:23:10;;;;;;;15.40;5.60;;;;;;;;;;6118930;23;20101;-47
2023/01/26 08:25:37;;;;;;;23.65;6.90;;;;;;;;;;6119224;23;20518;-47
2023/01/26 08:28:04;;;;;;;20.50;6.65;;;;;;;;;;6119239;23;20101;-48
2023/01/26 08:30:38;;;;;;;19.35;6.55;;;;;;;;;;6147401;23;20053;-49
2023/01/26 08:33:05;;;;;;;17.20;5.65;;;;;;;;;;6148788;23;20044;-48
2023/01/26 08:35:39;;;;;;;14.05;4.97;;;;;;;;;;6148692;23;20419;-51
2023/01/26 08:38:06;;;;;;;10.50;4.70;;;;;;;;;;6147070;23;20026;-60
2023/01/26 08:40:33;;;;;;;13.52;5.43;;;;;;;;;;6148827;23;20028;-71
2023/01/26 08:43:07;;;;;;;6.53;3.55;;;;;;;;;;6149373;23;20052;-71
2023/01/26 08:45:34;;;;;;;6.53;3.58;;;;;;;;;;6147892;23;20100;-71
2023/01/26 08:48:01;;;;;;;9.88;4.07;;;;;;;;;;6147828;23;20529;-72
2023/01/26 08:50:35;;;;;;;8.75;3.25;;;;;;;;;;6148289;23;20395;-71
2023/01/26 08:53:02;;;;;;;3.88;2.40;;;;;;;;;;6146800;23;20022;-69
2023/01/26 08:55:36;;;;;;;4.70;2.80;;;;;;;;;;6149321;23;20104;-55
2023/01/26 08:58:03;;;;;;;5.72;2.60;;;;;;;;;;6149198;23;20105;-55
2023/01/26 09:00:32;;;;;;;6.22;2.97;;;;;;;;;;6148253;23;20665;-55
2023/01/26 09:03:05;;;;;;;7.40;3.15;;;;;;;;;;6147528;23;20074;-55
2023/01/26 09:05:33;;;;;;;;;;;;;;;;;;6147702;23;20148;-53
2023/01/26 09:08:07;;;;;;;4.68;2.33;;;;;;;;;;6148092;23;19966;-54
2023/01/26 09:10:36;;;;;;;4.70;2.42;;;;;;;;;;6146427;23;20053;-53
2023/01/26 09:13:03;;;;;;;6.80;2.33;;;;;;;;;;6147809;23;20065;-50
2023/01/26 09:15:37;;;;;;;3.55;2.22;;;;;;;;;;6148144;23;20063;-74
2023/01/26 09:18:05;;;;;;;;;;;;;;;;;;6120104;23;20420;-60
2023/01/26 09:20:45;;;;;;;1.90;1.45;;;;;;;;;;6084104;23;20009;-60
2023/01/26 09:23:12;;;;;;;2.55;1.70;;;;;;;;;;6089134;23;20097;-60
2023/01/26 09:25:51;;;;;;;2.20;1.50;;;;;;;;;;6085837;23;20028;-60
2023/01/26 09:28:26;;;;;;;4.20;1.40;;;;;;;;;;6089637;23;20026;-61
2023/01/26 09:30:53;;;;;;;;;;;;;;;;;;6089010;23;20105;-60
2023/01/26 09:33:24;;;;;;;3.65;1.23;;;;;;;;;;6089275;23;19917;-55
2023/01/26 09:36:02;;;;;;;1.80;1.37;;;;;;;;;;6088953;23;20029;-77
2023/01/26 09:38:30;;;;;;;2.55;1.27;;;;;;;;;;6088605;23;20048;-77
2023/01/26 09:41:22;;;;;;;2.47;1.30;;;;;;;;;;6089647;23;20026;-76
2023/01/26 09:44:09;;;;;;;2.38;0.90;;;;;;;;;;6088741;23;20058;-76
2023/01/26 09:46:58;;;;;;;1.65;1.00;;;;;;;;;;6088865;23;20042;-77
2023/01/26 09:49:44;;;;;;;3.42;1.00;;;;;;;;;;6088628;23;20058;-76
2023/01/26 09:52:26;;;;;;;1.17;0.60;;;;;;;;;;6088782;23;20645;-58
2023/01/26 09:55:04;;;;;;;0.63;0.63;;;;;;;;;;6089933;23;20074;-69
2023/01/26 09:57:46;;;;;;;1.17;0.60;;;;;;;;;;6089292;23;20022;-69
2023/01/26 10:00:22;;;;;;;0.60;0.60;;;;;;;;;;6089100;23;20023;-69
2023/01/26 10:03:10;;;;;;;0.60;0.60;;;;;;;;;;6089417;23;20022;-69
2023/01/26 10:05:51;;;;;;;1.75;0.70;;;;;;;;;;6090207;23;20064;-69
2023/01/26 10:08:25;;;;;;;1.75;0.65;;;;;;;;;;6089724;23;20109;-69
2023/01/26 10:11:04;;;;;;;0.60;0.60;;;;;;;;;;6091712;23;20029;-60
2023/01/26 10:13:38;;;;;;;1.38;0.60;;;;;;;;;;6090702;23;20068;-61
2023/01/26 10:16:07;;;;;;;0.52;0.50;;;;;;;;;;6090519;23;20046;-61
2023/01/26 10:18:49;;;;;;;0.50;0.50;;;;;;;;;;6108505;23;20030;-61
2023/01/26 10:21:23;;;;;;;;;;;;;;;;;;6150373;23;20049;-61
2023/01/26 10:23:51;;;;;;;0.98;0.50;;;;;;;;;;6149308;23;20439;-61
2023/01/26 10:26:29;;;;;;;0.57;0.57;;;;;;;;;;6149720;23;20411;-61
2023/01/26 10:28:57;;;;;;;1.77;0.63;;;;;;;;;;6149909;23;20025;-61
2023/01/26 10:31:32;;;;;;;0.82;0.60;;;;;;;;;;6149992;23;20557;-54
2023/01/26 10:34:02;;;;;;;0.80;0.40;;;;;;;;;;6150086;23;20028;-51
2023/01/26 10:36:30;;;;;;;1.10;0.63;;;;;;;;;;6149019;23;20026;-52
2023/01/26 10:39:04;;;;;;;0.98;0.70;;;;;;;;;;6150006;23;20519;-53
2023/01/26 10:41:31;;;;;;;2.03;0.95;;;;;;;;;;6149595;23;20022;-51
2023/01/26 10:44:28;;;;;;;1.40;0.52;;;;;;;;;;6148944;23;20025;-50
2023/01/26 10:47:06;;;;;;;2.20;0.60;;;;;;;;;;6149543;23;20025;-56
2023/01/26 10:49:39;;;;;;;1.35;0.75;;;;;;;;;;6148772;23;20026;-48
2023/01/26 10:52:07;;;;;;;2.60;0.95;;;;;;;;;;6150292;23;20129;-45
2023/01/26 10:54:35;;;;;;;1.95;0.70;;;;;;;;;;6147787;23;20100;-46
2023/01/26 10:57:21;;;;;;;0.70;0.30;;;;;;;;;;6148993;23;20031;-47
2023/01/26 10:59:48;;;;;;;1.63;0.60;;;;;;;;;;6148154;23;20534;-45
2023/01/26 11:02:26;;;;;;;0.88;0.60;;;;;;;;;;6150513;23;20040;-47
2023/01/26 11:05:08;;;;;;;1.20;0.60;;;;;;;;;;6148075;23;20026;-52
2023/01/26 11:07:46;;;;;;;2.35;0.75;;;;;;;;;;6148924;23;20539;-53
2023/01/26 11:10:22;;;;;;;1.00;0.57;;;;;;;;;;6150125;23;20097;-54
2023/01/26 11:13:11;;;;;;;1.90;0.65;;;;;;;;;;6149549;23;20022;-55
2023/01/26 11:15:49;;;;;;;0.77;0.60;;;;;;;;;;6141782;23;20100;-53
2023/01/26 11:18:53;;;;;;;1.92;0.80;;;;;;;;;;6119836;23;20094;-50
2023/01/26 11:21:39;;;;;;;1.20;0.70;;;;;;;;;;6087368;23;20114;-50
2023/01/26 11:24:16;;;;;;;1.67;0.50;;;;;;;;;;6090228;23;20022;-50
2023/01/26 11:26:47;;;;;;;1.65;0.60;;;;;;;;;;6065002;23;20030;-69
2023/01/26 11:29:29;;;;;;;5.90;0.80;;;;;;;;;;6090755;23;20105;-69
2023/01/26 11:32:05;;;;;;;2.30;0.90;;;;;;;;;;6089327;23;20058;-68
2023/01/26 11:34:45;;;;;;;3.78;0.85;;;;;;;;;;6087929;23;20104;-69
2023/01/26 11:37:31;;;;;;;3.10;0.73;;;;;;;;;;6089777;23;20033;-68
2023/01/26 11:40:13;;;;;;;5.10;0.90;;;;;;;;;;6089153;23;20022;-68
2023/01/26 11:43:07;;;;;;;0.73;0.40;;;;;;;;;;6089410;23;20029;-51
2023/01/26 11:45:57;;;;;;;3.40;0.82;;;;;;;;;;6070118;23;20496;-47
2023/01/26 11:48:24;;;;;;;2.45;0.50;;;;;;;;;;6089692;23;20405;-47
2023/01/26 11:51:06;;;;;;;4.35;0.95;;;;;;;;;;6089953;23;20053;-45
2023/01/26 11:53:39;;;;;;;4.60;0.80;;;;;;;;;;6089739;23;20023;-48
2023/01/26 11:56:32;;;;;;;3.40;0.70;;;;;;;;;;6090259;23;20109;-48
2023/01/26 11:59:05;;;;;;;0.75;0.60;;;;;;;;;;6090839;23;20491;-68
2023/01/26 12:01:45;;;;;;;4.57;1.13;;;;;;;;;;6087563;23;20053;-71
2023/01/26 12:04:20;;;;;;;0.52;0.40;;;;;;;;;;6089669;23;20562;-72
2023/01/26 12:06:58;;;;;;;2.28;0.85;;;;;;;;;;6089533;23;20082;-72
2023/01/26 12:09:37;;;;;;;2.58;0.70;;;;;;;;;;6089958;23;20026;-72
2023/01/26 12:12:18;;;;;;;2.67;0.50;;;;;;;;;;6088971;23;20033;-71
2023/01/26 12:14:52;;;;;;;4.35;0.60;;;;;;;;;;6089651;23;20232;-71
2023/01/26 12:17:22;;;;;;;1.92;0.60;;;;;;;;;;6090811;23;20034;-55
2023/01/26 12:20:25;;;;;;;5.05;0.85;;;;;;;;;;6089559;23;20060;-58
2023/01/26 12:23:04;;;;;;;0.93;0.52;;;;;;;;;;6089996;23;20519;-68
2023/01/26 12:25:39;;;;;;;2.30;0.80;;;;;;;;;;6088702;23;20109;-67
2023/01/26 12:28:16;;;;;;;1.80;0.82;;;;;;;;;;6089451;23;20029;-67
2023/01/26 12:30:55;;;;;;;2.83;0.70;;;;;;;;;;6090328;23;20057;-67
2023/01/26 12:33:23;;;;;;;5.43;0.90;;;;;;;;;;6089237;23;20026;-68
2023/01/26 12:35:56;;;;;;;4.82;0.90;;;;;;;;;;6089839;23;20052;-59
2023/01/26 12:38:42;;;;;;;1.63;0.75;;;;;;;;;;6089362;23;20488;-67
2023/01/26 12:41:20;;;;;;;4.68;0.75;;;;;;;;;;6089831;23;20022;-59
2023/01/26 12:44:02;;;;;;;1.98;0.70;;;;;;;;;;6089171;23;20069;-60
2023/01/26 12:46:36;;;;;;;;;;;;;;;;;;6090329;23;20037;-60
2023/01/26 12:49:07;;;;;;;2.00;0.70;;;;;;;;;;6088752;23;20411;-59
2023/01/26 12:51:37;;;;;;;2.28;0.50;;;;;;;;;;6089955;23;20034;-59
2023/01/26 12:54:23;;;;;;;2.67;0.57;;;;;;;;;;6089893;23;20397;-47
2023/01/26 12:56:52;;;;;;;6.00;1.42;;;;;;;;;;6089650;23;20105;-49
2023/01/26 12:59:35;;;;;;;1.75;0.70;;;;;;;;;;6088680;23;20050;-59
2023/01/26 13:02:21;;;;;;;2.15;0.82;;;;;;;;;;6089893;23;20065;-58
2023/01/26 13:04:57;;;;;;;2.10;0.60;;;;;;;;;;6089933;23;20033;-58
2023/01/26 13:07:32;;;;;;;1.85;0.80;;;;;;;;;;6088459;23;20473;-58
2023/01/26 13:10:09;;;;;;;1.30;0.60;;;;;;;;;;6089360;23;20077;-58
2023/01/26 13:12:49;;;;;;;4.78;0.80;;;;;;;;;;6089282;23;20023;-72
2023/01/26 13:15:24;;;;;;;7.38;1.40;;;;;;;;;;6089178;23;20101;-54
2023/01/26 13:17:55;;;;;;;3.00;0.93;;;;;;;;;;6093664;23;20092;-51
2023/01/26 13:20:49;;;;;;;10.07;1.52;;;;;;;;;;6118779;23;20034;-54
2023/01/26 13:23:35;;;;;;;2.50;0.77;;;;;;;;;;6118554;23;20037;-53
2023/01/26 13:26:14;;;;;;;3.05;0.80;;;;;;;;;;6146390;23;20040;-50
2023/01/26 13:28:41;;;;;;;4.53;0.85;;;;;;;;;;6148054;23;20424;-51
2023/01/26 13:31:28;;;;;;;3.97;0.90;;;;;;;;;;6147696;23;20497;-72
2023/01/26 13:33:58;;;;;;;3.60;1.02;;;;;;;;;;6148137;23;20025;-60
2023/01/26 13:36:34;;;;;;;6.93;1.40;;;;;;;;;;6147481;23;20149;-60
2023/01/26 13:39:20;;;;;;;5.78;0.70;;;;;;;;;;6149482;23;20056;-60
2023/01/26 13:41:54;;;;;;;1.55;0.70;;;;;;;;;;6149465;23;20420;-60
2023/01/26 13:44:23;;;;;;;4.93;0.82;;;;;;;;;;6150856;23;20026;-60
2023/01/26 13:46:59;;;;;;;3.72;1.00;;;;;;;;;;6149020;23;20490;-60
2023/01/26 13:49:37;;;;;;;3.05;0.77;;;;;;;;;;6150293;23;20120;-60
2023/01/26 13:52:14;;;;;;;2.33;0.73;;;;;;;;;;6150837;23;20101;-58
2023/01/26 13:54:49;;;;;;;4.82;0.77;;;;;;;;;;6150254;23;20048;-58
2023/01/26 13:57:21;;;;;;;2.20;0.90;;;;;;;;;;6150315;23;20542;-58
2023/01/26 13:59:59;;;;;;;2.95;1.02;;;;;;;;;;6150670;23;20092;-58
2023/01/26 14:02:31;;;;;;;4.68;0.98;;;;;;;;;;6149439;23;20026;-58
2023/01/26 14:05:06;;;;;;;1.58;0.80;;;;;;;;;;6149419;23;20546;-58
2023/01/26 14:07:33;;;;;;;;;;;;;;;;;;6149457;23;20018;-59
2023/01/26 14:10:01;;;;;;;1.85;0.63;;;;;;;;;;6151508;23;19927;-59
2023/01/26 14:12:42;;;;;;;5.47;0.88;;;;;;;;;;6148376;23;20033;-46
2023/01/26 14:15:22;;;;;;;4.38;1.00;;;;;;;;;;6150209;23;20025;-47
2023/01/26 14:18:04;;;;;;;2.55;1.15;;;;;;;;;;6138811;23;20068;-49
2023/01/26 14:20:32;;;;;;;4.82;0.93;;;;;;;;;;6090857;23;20034;-50
2023/01/26 14:23:17;;;;;;;5.63;1.30;;;;;;;;;;6091222;23;20028;-48
2023/01/26 14:25:46;;;;;;;2.47;1.23;;;;;;;;;;6090131;23;20022;-51
2023/01/26 14:28:20;;;;;;;4.63;0.82;;;;;;;;;;6091238;23;20102;-68
2023/01/26 14:30:52;;;;;;;5.30;1.33;;;;;;;;;;6090773;23;20072;-52
2023/01/26 14:33:19;;;;;;;3.42;0.90;;;;;;;;;;6089667;23;20033;-50
2023/01/26 14:36:01;;;;;;;3.88;0.70;;;;;;;;;;6066391;23;20029;-52
2023/01/26 14:38:31;;;;;;;4.47;1.27;;;;;;;;;;6091059;23;20099;-51
2023/01/26 14:41:12;;;;;;;4.83;1.50;;;;;;;;;;6091305;23;20097;-51
2023/01/26 14:43:39;;;;;;;6.22;1.10;;;;;;;;;;6090605;23;20563;-50
2023/01/26 14:46:15;;;;;;;4.35;1.15;;;;;;;;;;6090773;23;20029;-68
2023/01/26 14:48:47;;;;;;;3.15;1.13;;;;;;;;;;6089900;23;20027;-53
2023/01/26 14:51:22;;;;;;;3.05;0.80;;;;;;;;;;6090880;23;20031;-51
2023/01/26 14:54:13;;;;;;;3.97;0.70;;;;;;;;;;6089831;23;20080;-53
2023/01/26 14:56:47;;;;;;;3.58;0.95;;;;;;;;;;6085464;23;20093;-52
2023/01/26 14:59:20;;;;;;;5.22;0.95;;;;;;;;;;6090424;23;20026;-51
2023/01/26 15:02:04;;;;;;;6.57;1.30;;;;;;;;;;6090236;23;20033;-52
2023/01/26 15:04:37;;;;;;;3.25;0.90;;;;;;;;;;6090619;23;20353;-50
2023/01/26 15:07:32;;;;;;;3.60;1.00;;;;;;;;;;6090674;23;20058;-59
2023/01/26 15:09:59;;;;;;;6.45;1.25;;;;;;;;;;6090272;23;20101;-59
2023/01/26 15:12:34;;;;;;;1.63;1.00;;;;;;;;;;6089424;23;20476;-59
2023/01/26 15:15:02;;;;;;;4.25;0.90;;;;;;;;;;6090772;23;20026;-59
2023/01/26 15:17:43;;;;;;;7.63;1.33;;;;;;;;;;6088597;23;20057;-59
2023/01/26 15:20:17;;;;;;;5.53;0.90;;;;;;;;;;6120327;23;20038;-59
2023/01/26 15:22:51;;;;;;;3.55;1.00;;;;;;;;;;6118918;23;20093;-72
2023/01/26 15:25:25;;;;;;;4.63;1.48;;;;;;;;;;6120213;23;20025;-60
2023/01/26 15:27:59;;;;;;;2.95;1.00;;;;;;;;;;6119540;23;20093;-61
2023/01/26 15:30:36;;;;;;;4.75;0.93;;;;;;;;;;6118387;23;20073;-61
2023/01/26 15:33:30;;;;;;;2.78;1.00;;;;;;;;;;6120105;23;20030;-61
2023/01/26 15:35:57;;;;;;;1.98;0.80;;;;;;;;;;6119523;23;20098;-60
2023/01/26 15:38:31;;;;;;;5.43;0.90;;;;;;;;;;6118898;23;20024;-61
2023/01/26 15:40:58;;;;;;;2.55;1.15;;;;;;;;;;6119857;23;20441;-59
2023/01/26 15:43:25;;;;;;;5.25;1.45;;;;;;;;;;6118239;23;20093;-59
2023/01/26 15:46:00;;;;;;;3.35;0.90;;;;;;;;;;6118902;23;21022;-58
2023/01/26 15:48:30;;;;;;;3.40;1.08;;;;;;;;;;6119148;23;20411;-59
2023/01/26 15:51:05;;;;;;;10.70;1.35;;;;;;;;;;6119059;23;20575;-59
2023/01/26 15:53:32;;;;;;;4.75;1.05;;;;;;;;;;6116688;23;20079;-58
2023/01/26 15:56:00;;;;;;;5.10;1.10;;;;;;;;;;6118802;23;20105;-59
2023/01/26 15:58:35;;;;;;;3.67;0.80;;;;;;;;;;6118753;23;20100;-55
2023/01/26 16:01:02;;;;;;;7.30;0.80;;;;;;;;;;6118183;23;20022;-71
2023/01/26 16:03:36;;;;;;;3.35;1.05;;;;;;;;;;6118056;23;20045;-71